Time;durP1;ratioP1;P1;durP2;ratioP2;P2;SDS_P1;SDS_P2;PMS_P1;PMS_P2;Temp;Humidity;BMP_temperature;BMP_pressure;BME280_temperature;BME280_humidity;BME280_pressure;Samples;Min_cycle;Max_cycle;Signal;HPM_P1;HPM_P2
2022/01/13 00:01:19;;;;;;;19.27;11.95;;;21.40;42.70;;;;;;5071008;28;20049;-59
2022/01/13 00:03:45;;;;;;;39.92;12.70;;;21.40;42.80;;;;;;5068117;28;45336;-59
2022/01/13 00:06:11;;;;;;;44.45;11.82;;;21.40;42.70;;;;;;5069088;28;20044;-59
2022/01/13 00:08:36;;;;;;;25.85;11.55;;;21.40;42.80;;;;;;5072693;28;20032;-59
2022/01/13 00:11:02;;;;;;;24.00;11.32;;;21.40;42.70;;;;;;5067644;28;20036;-59
2022/01/13 00:13:35;;;;;;;23.73;10.90;;;21.30;42.70;;;;;;5070575;28;20640;-58
2022/01/13 00:16:25;;;;;;;24.15;11.05;;;21.30;42.70;;;;;;5067051;28;20751;-60
2022/01/13 00:19:04;;;;;;;15.90;10.52;;;21.30;42.80;;;;;;5073230;28;20047;-59
2022/01/13 00:21:35;;;;;;;21.38;9.82;;;21.30;42.80;;;;;;5067610;28;20044;-60
2022/01/13 00:24:02;;;;;;;21.98;11.18;;;21.20;42.80;;;;;;5074292;28;20055;-59
2022/01/13 00:26:30;;;;;;;20.65;10.25;;;21.20;42.80;;;;;;5068786;28;20131;-59
2022/01/13 00:28:59;;;;;;;21.73;10.40;;;21.20;42.80;;;;;;5072589;28;20134;-59
2022/01/13 00:31:29;;;;;;;17.40;9.77;;;21.20;42.70;;;;;;5067876;28;38148;-59
2022/01/13 00:33:57;;;;;;;16.20;8.85;;;21.20;42.80;;;;;;5073104;28;20044;-59
2022/01/13 00:36:24;;;;;;;15.75;9.90;;;21.20;42.80;;;;;;5066209;28;20066;-59
2022/01/13 00:38:51;;;;;;;16.02;9.15;;;21.10;42.80;;;;;;5074594;28;20041;-59
2022/01/13 00:41:16;;;;;;;15.20;9.40;;;21.10;42.80;;;;;;5067534;28;20066;-59
2022/01/13 00:43:45;;;;;;;15.25;9.13;;;21.10;43.50;;;;;;5073884;28;20041;-58
2022/01/13 00:46:18;;;;;;;17.85;9.38;;;21.10;42.80;;;;;;5064985;28;45172;-58
2022/01/13 00:48:43;;;;;;;40.90;10.40;;;21.10;42.80;;;;;;5072042;28;20241;-59
2022/01/13 00:51:09;;;;;;;52.80;12.00;;;21.10;42.80;;;;;;5068195;28;20098;-59
2022/01/13 00:53:34;;;;;;;64.05;13.20;;;21.00;42.80;;;;;;5072010;28;20086;-59
2022/01/13 00:56:00;;;;;;;92.32;14.98;;;21.00;42.80;;;;;;5070204;28;20043;-59
2022/01/13 00:58:31;;;;;;;67.85;13.00;;;21.00;42.80;;;;;;5067383;28;45678;-59
2022/01/13 01:00:58;;;;;;;91.28;14.48;;;21.00;42.80;;;;;;5069566;28;20050;-59
2022/01/13 01:03:24;;;;;;;81.10;12.13;;;20.90;42.80;;;;;;5066987;28;20060;-59
2022/01/13 01:05:50;;;;;;;86.68;15.55;;;20.90;42.80;;;;;;5066719;28;20051;-58
2022/01/13 01:08:16;;;;;;;66.38;12.55;;;20.90;42.80;;;;;;5069946;28;20032;-59
2022/01/13 01:10:45;;;;;;;60.55;12.68;;;20.90;42.90;;;;;;5069746;28;20044;-59
2022/01/13 01:13:16;;;;;;;61.45;11.93;;;20.90;42.90;;;;;;5067912;28;40985;-59
2022/01/13 01:15:48;;;;;;;52.35;10.82;;;20.80;42.80;;;;;;5070148;28;20040;-59
2022/01/13 01:18:26;;;;;;;51.28;11.00;;;20.90;43.00;;;;;;5069903;28;20090;-59
2022/01/13 01:28:51;;;;;;;26.65;9.10;;;20.80;43.80;;;;;;5071340;28;42997;-59
2022/01/13 01:31:25;;;;;;;30.80;8.90;;;20.80;43.80;;;;;;5068692;28;20048;-59
2022/01/13 01:34:02;;;;;;;33.70;10.23;;;20.80;43.90;;;;;;5070902;28;20037;-59
2022/01/13 01:36:28;;;;;;;24.23;7.97;;;20.70;44.00;;;;;;5066906;28;20082;-59
2022/01/13 01:38:56;;;;;;;23.63;8.50;;;20.70;44.00;;;;;;5071923;28;20073;-59
2022/01/13 01:41:21;;;;;;;19.95;8.40;;;20.70;44.10;;;;;;5064986;28;40401;-59
2022/01/13 01:43:48;;;;;;;25.33;7.85;;;20.70;44.10;;;;;;5070608;28;20596;-59
2022/01/13 01:46:14;;;;;;;19.92;8.18;;;20.70;44.10;;;;;;5067979;28;20102;-59
2022/01/13 01:48:39;;;;;;;16.17;7.85;;;20.70;44.20;;;;;;5070233;28;20076;-59
2022/01/13 01:51:07;;;;;;;34.85;9.13;;;20.70;44.20;;;;;;5066252;28;21057;-59
2022/01/13 01:53:33;;;;;;;28.98;9.05;;;20.70;44.20;;;;;;5070725;28;20044;-59
2022/01/13 01:55:59;;;;;;;22.38;8.07;;;20.60;44.20;;;;;;5065010;28;48282;-58
2022/01/13 01:58:28;;;;;;;19.60;8.68;;;20.60;44.20;;;;;;5070730;28;20076;-58
2022/01/13 02:00:55;;;;;;;24.10;8.20;;;20.60;44.20;;;;;;5069015;28;20040;-59
2022/01/13 02:03:22;;;;;;;21.65;8.13;;;20.60;44.30;;;;;;5069658;28;20551;-59
2022/01/13 02:05:48;;;;;;;18.58;7.68;;;20.60;44.20;;;;;;5068452;28;20052;-59
2022/01/13 02:08:13;;;;;;;18.50;7.07;;;20.60;44.30;;;;;;5069654;28;20559;-59
2022/01/13 02:10:39;;;;;;;17.70;7.55;;;20.60;44.30;;;;;;5065366;28;38282;-59
2022/01/13 02:13:09;;;;;;;18.70;7.63;;;20.60;44.30;;;;;;5069898;28;20582;-59
2022/01/13 02:15:46;;;;;;;14.50;7.18;;;20.50;44.30;;;;;;5063002;28;20040;-60
2022/01/13 02:18:12;;;;;;;17.80;7.47;;;20.50;44.20;;;;;;5070714;28;20376;-59
2022/01/13 02:20:47;;;;;;;23.55;7.60;;;20.50;44.30;;;;;;5068826;28;20044;-59
2022/01/13 02:23:12;;;;;;;9.95;6.85;;;20.50;44.30;;;;;;5066309;28;40548;-59
2022/01/13 02:25:38;;;;;;;16.73;7.50;;;20.50;44.30;;;;;;5065112;28;20041;-60
2022/01/13 02:28:04;;;;;;;21.20;7.82;;;20.50;44.20;;;;;;5051999;28;20046;-59
2022/01/13 02:30:30;;;;;;;21.75;7.15;;;20.50;44.20;;;;;;5066891;28;20044;-59
2022/01/13 02:32:55;;;;;;;23.05;7.55;;;20.50;44.30;;;;;;5069954;28;20049;-59
2022/01/13 02:35:21;;;;;;;27.83;8.38;;;20.40;44.20;;;;;;5065271;28;20048;-60
2022/01/13 02:37:46;;;;;;;21.60;7.40;;;20.40;44.20;;;;;;5065762;28;38299;-59
2022/01/13 02:40:12;;;;;;;23.50;7.60;;;20.40;44.20;;;;;;5067564;28;20103;-60
2022/01/13 02:42:37;;;;;;;21.85;7.82;;;20.40;44.20;;;;;;5067446;28;20101;-59
2022/01/13 02:45:14;;;;;;;21.98;7.63;;;20.40;44.10;;;;;;5066957;28;20111;-59
2022/01/13 02:48:00;;;;;;;16.67;7.20;;;20.40;44.10;;;;;;5066878;28;20044;-59
2022/01/13 02:50:25;;;;;;;15.38;6.78;;;20.40;44.20;;;;;;5067497;28;20072;-59
2022/01/13 02:52:51;;;;;;;16.38;7.50;;;20.40;44.20;;;;;;5060256;28;38472;-59
2022/01/13 02:55:16;;;;;;;16.92;6.82;;;20.40;44.20;;;;;;5072625;28;20094;-59
2022/01/13 02:57:42;;;;;;;11.90;7.18;;;20.30;44.10;;;;;;5066441;28;20036;-59
2022/01/13 03:00:08;;;;;;;17.85;7.47;;;20.30;44.20;;;;;;5067887;28;20472;-59
2022/01/13 03:02:34;;;;;;;11.95;6.75;;;20.30;44.20;;;;;;5057455;28;20032;-59
2022/01/13 03:04:59;;;;;;;16.65;6.65;;;20.30;44.20;;;;;;5063184;28;43016;-61
2022/01/13 03:07:26;;;;;;;9.70;6.20;;;20.30;44.20;;;;;;5065539;28;20208;-62
2022/01/13 03:09:52;;;;;;;13.23;6.50;;;20.30;44.10;;;;;;5067829;28;20044;-61
2022/01/13 03:12:18;;;;;;;13.25;7.07;;;20.30;44.10;;;;;;5066603;28;20043;-59
2022/01/13 03:14:44;;;;;;;12.23;6.47;;;20.30;44.20;;;;;;5051941;28;20045;-59
2022/01/13 03:17:09;;;;;;;11.02;6.40;;;20.20;44.10;;;;;;5067164;28;21526;-59
2022/01/13 03:19:35;;;;;;;12.38;6.57;;;20.20;44.00;;;;;;5062887;28;27653;-59
2022/01/13 03:22:00;;;;;;;11.13;5.85;;;20.20;44.10;;;;;;5064154;28;20117;-60
2022/01/13 03:24:27;;;;;;;9.68;5.85;;;20.20;44.00;;;;;;5066124;28;20082;-59
2022/01/13 03:26:54;;;;;;;8.73;5.95;;;20.20;44.10;;;;;;5066160;28;20040;-59
2022/01/13 03:29:21;;;;;;;10.55;6.07;;;20.20;44.10;;;;;;5069603;28;20044;-59
2022/01/13 03:31:47;;;;;;;8.13;5.72;;;20.20;44.00;;;;;;5069373;28;20032;-59
2022/01/13 03:34:14;;;;;;;13.65;6.03;;;20.20;44.00;;;;;;5065366;28;38076;-59
2022/01/13 03:36:44;;;;;;;9.52;5.70;;;20.20;44.00;;;;;;5071460;28;20024;-59
2022/01/13 03:39:10;;;;;;;8.73;6.00;;;20.20;44.00;;;;;;5070427;28;20123;-59
2022/01/13 03:41:38;;;;;;;8.55;5.40;;;20.10;44.00;;;;;;5070563;28;20118;-60
2022/01/13 03:44:05;;;;;;;8.60;5.30;;;20.10;43.90;;;;;;5070709;28;20032;-59
2022/01/13 03:46:36;;;;;;;8.43;5.28;;;20.10;43.90;;;;;;5071814;28;20070;-59
2022/01/13 03:49:02;;;;;;;8.63;5.77;;;20.10;44.00;;;;;;5069312;28;42695;-59
2022/01/13 03:51:55;;;;;;;7.68;5.60;;;20.10;43.90;;;;;;5071521;28;20052;-59
2022/01/13 03:54:33;;;;;;;6.88;5.50;;;20.10;44.00;;;;;;5068370;28;20044;-59
2022/01/13 03:57:46;;;;;;;6.93;5.25;;;20.10;44.00;;;;;;5072357;28;20855;-59
2022/01/13 04:00:57;;;;;;;6.68;5.30;;;20.10;43.90;;;;;;5069712;28;20149;-59
2022/01/13 04:03:23;;;;;;;6.82;5.25;;;20.00;43.90;;;;;;5067333;28;48333;-59
2022/01/13 04:06:02;;;;;;;9.77;5.53;;;20.00;43.90;;;;;;5067017;28;20054;-59
2022/01/13 04:08:27;;;;;;;6.82;4.93;;;20.00;43.90;;;;;;5069713;28;20048;-59
2022/01/13 04:11:10;;;;;;;5.97;5.25;;;20.00;43.90;;;;;;5069209;28;20105;-59
2022/01/13 04:16:16;;;;;;;5.88;5.28;;;20.00;43.90;;;;;;5069585;28;43279;-59
2022/01/13 04:18:42;;;;;;;7.47;4.97;;;20.00;43.90;;;;;;5070481;28;20147;-60
2022/01/13 04:21:08;;;;;;;6.30;4.75;;;20.00;44.60;;;;;;5068249;28;20040;-59
2022/01/13 04:23:34;;;;;;;6.82;4.82;;;20.00;43.90;;;;;;5068638;28;20056;-58
2022/01/13 04:26:04;;;;;;;8.05;5.13;;;19.90;43.90;;;;;;5072685;28;20407;-59
2022/01/13 04:28:30;;;;;;;6.45;4.90;;;19.90;43.80;;;;;;5068010;28;20494;-60
2022/01/13 04:31:02;;;;;;;6.85;5.22;;;19.90;43.80;;;;;;5067181;28;45648;-60
2022/01/13 04:33:29;;;;;;;6.40;5.13;;;19.90;43.80;;;;;;5069063;28;20044;-59
2022/01/13 04:35:55;;;;;;;6.78;5.05;;;19.90;43.80;;;;;;5069914;28;20037;-59
2022/01/13 04:38:20;;;;;;;5.93;4.63;;;19.90;43.80;;;;;;5066561;28;20032;-59
2022/01/13 04:40:48;;;;;;;5.97;5.18;;;19.90;43.80;;;;;;5070355;28;20060;-59
2022/01/13 04:43:14;;;;;;;5.15;4.50;;;19.90;43.80;;;;;;5071002;28;20460;-59
2022/01/13 04:45:40;;;;;;;7.80;5.38;;;19.90;43.70;;;;;;5064480;28;41074;-59
2022/01/13 04:48:07;;;;;;;5.68;4.75;;;19.90;43.70;;;;;;5071224;28;20128;-59
2022/01/13 04:50:32;;;;;;;5.65;4.80;;;19.80;43.60;;;;;;5067383;28;20033;-59
2022/01/13 04:52:58;;;;;;;5.22;4.68;;;19.80;43.60;;;;;;5069747;28;20101;-58
2022/01/13 04:55:25;;;;;;;7.88;4.43;;;19.80;43.70;;;;;;5068009;28;20471;-59
2022/01/13 04:57:53;;;;;;;5.82;4.55;;;19.80;43.70;;;;;;5070392;28;42618;-58
2022/01/13 05:00:19;;;;;;;5.63;4.78;;;19.80;43.60;;;;;;5065822;28;20044;-59
2022/01/13 05:02:45;;;;;;;5.90;4.38;;;19.80;43.60;;;;;;5032275;28;1015688;-58
2022/01/13 05:05:11;;;;;;;5.13;4.45;;;19.80;43.60;;;;;;5068088;28;20032;-58
2022/01/13 05:07:37;;;;;;;6.20;4.75;;;19.80;43.60;;;;;;5072465;28;20048;-59
2022/01/13 05:10:03;;;;;;;6.00;4.65;;;19.80;43.60;;;;;;5067227;28;20103;-59
2022/01/13 05:12:35;;;;;;;5.40;4.85;;;19.80;43.60;;;;;;5066844;28;38005;-59
2022/01/13 05:15:04;;;;;;;5.85;5.03;;;19.80;43.50;;;;;;5070912;28;20044;-59
2022/01/13 05:18:05;;;;;;;6.07;4.80;;;19.80;43.50;;;;;;5068112;28;20036;-59
2022/01/13 05:20:22;;;;;;;5.80;4.43;;;19.70;43.50;;;;;;5061167;28;20910;-59
2022/01/13 05:22:48;;;;;;;5.30;4.80;;;19.70;43.50;;;;;;5068826;28;20071;-59
2022/01/13 05:25:16;;;;;;;5.53;4.55;;;19.70;43.50;;;;;;5069995;28;20814;-59
2022/01/13 05:27:42;;;;;;;6.55;4.70;;;19.70;43.50;;;;;;5064627;28;35577;-59
2022/01/13 05:30:09;;;;;;;8.68;5.25;;;19.70;43.50;;;;;;5066268;28;20040;-59
2022/01/13 05:32:35;;;;;;;4.93;4.43;;;19.70;43.50;;;;;;5069763;28;20131;-59
2022/01/13 05:35:01;;;;;;;4.95;4.35;;;19.70;43.40;;;;;;5067861;28;20111;-59
2022/01/13 05:37:26;;;;;;;4.75;4.20;;;19.70;43.50;;;;;;5071326;28;20044;-59
2022/01/13 05:39:52;;;;;;;6.65;4.32;;;19.70;43.50;;;;;;5064987;28;20272;-59
2022/01/13 05:42:18;;;;;;;5.32;4.82;;;19.70;43.50;;;;;;5069801;28;20033;-59
2022/01/13 05:44:43;;;;;;;4.50;4.07;;;19.70;43.60;;;;;;5070372;28;20128;-59
2022/01/13 05:47:11;;;;;;;5.47;4.80;;;19.70;43.60;;;;;;5066493;28;20464;-59
2022/01/13 05:49:41;;;;;;;5.10;4.43;;;19.70;43.50;;;;;;5066947;28;20055;-59
2022/01/13 05:52:11;;;;;;;4.60;4.20;;;19.70;43.60;;;;;;5066144;28;20039;-59
2022/01/13 05:54:37;;;;;;;5.68;4.35;;;19.70;43.50;;;;;;5067397;28;38053;-59
2022/01/13 05:57:03;;;;;;;5.30;4.32;;;19.70;43.60;;;;;;5067039;28;20174;-59
2022/01/13 05:59:29;;;;;;;4.70;4.18;;;19.70;43.60;;;;;;5070800;28;20086;-62
2022/01/13 06:01:54;;;;;;;5.35;4.25;;;19.70;43.60;;;;;;5064903;28;20816;-59
2022/01/13 06:04:20;;;;;;;4.88;4.25;;;19.70;43.60;;;;;;5069558;28;20048;-59
2022/01/13 06:06:45;;;;;;;4.70;4.20;;;19.70;43.60;;;;;;5070416;28;20048;-59
2022/01/13 06:09:11;;;;;;;4.55;4.07;;;19.70;43.60;;;;;;5065627;28;35121;-59
2022/01/13 06:11:39;;;;;;;4.82;4.03;;;19.70;43.60;;;;;;5072149;28;20043;-59
2022/01/13 06:14:06;;;;;;;4.30;3.90;;;19.80;43.70;;;;;;5070074;28;20044;-59
2022/01/13 06:16:32;;;;;;;4.90;4.40;;;19.80;43.70;;;;;;5071524;28;20094;-59
2022/01/13 06:18:57;;;;;;;5.97;4.38;;;19.80;43.60;;;;;;5068051;28;20032;-59
2022/01/13 06:21:23;;;;;;;6.00;4.45;;;19.80;43.60;;;;;;5065189;28;20082;-59
2022/01/13 06:23:49;;;;;;;5.65;4.20;;;19.80;43.60;;;;;;5064776;28;42655;-58
2022/01/13 06:26:14;;;;;;;5.90;4.05;;;19.80;43.60;;;;;;5068654;28;20058;-60
2022/01/13 06:28:40;;;;;;;5.97;4.45;;;19.80;43.60;;;;;;5069931;28;20040;-59
2022/01/13 06:31:06;;;;;;;6.00;4.32;;;19.80;43.60;;;;;;5068431;28;20110;-59
2022/01/13 06:33:32;;;;;;;5.75;4.47;;;19.80;43.60;;;;;;5066489;28;20047;-59
2022/01/13 06:35:58;;;;;;;7.57;4.32;;;19.90;43.60;;;;;;5062838;28;38228;-59
2022/01/13 06:38:24;;;;;;;6.20;4.07;;;19.90;43.70;;;;;;5067323;28;20032;-60
2022/01/13 06:40:51;;;;;;;4.80;4.07;;;19.90;43.80;;;;;;5067310;28;20040;-59
2022/01/13 06:43:17;;;;;;;5.70;3.97;;;19.90;43.90;;;;;;5067519;28;20048;-59
2022/01/13 06:45:43;;;;;;;4.45;4.05;;;19.90;43.90;;;;;;5066415;28;20063;-59
2022/01/13 06:48:09;;;;;;;4.13;3.72;;;19.90;44.00;;;;;;5064959;28;20051;-59
2022/01/13 06:50:35;;;;;;;7.47;4.40;;;20.00;44.00;;;;;;5066440;28;42987;-59
2022/01/13 06:53:01;;;;;;;5.78;4.03;;;20.00;44.10;;;;;;5060787;28;20328;-59
2022/01/13 06:55:27;;;;;;;8.38;4.13;;;20.00;44.10;;;;;;5065806;28;20036;-58
2022/01/13 06:57:53;;;;;;;4.55;4.00;;;20.00;44.10;;;;;;5066198;28;20048;-58
2022/01/13 07:00:19;;;;;;;5.35;4.40;;;20.00;44.20;;;;;;5069132;28;20067;-58
2022/01/13 07:02:45;;;;;;;5.13;4.22;;;20.00;44.10;;;;;;5065239;28;20484;-59
2022/01/13 07:05:11;;;;;;;4.35;3.80;;;20.00;44.10;;;;;;5062811;28;38490;-58
2022/01/13 07:07:39;;;;;;;6.43;4.20;;;20.10;44.10;;;;;;5063460;28;20519;-59
2022/01/13 07:10:07;;;;;;;5.35;4.05;;;20.10;44.10;;;;;;5065805;28;20044;-59
2022/01/13 07:12:32;;;;;;;4.88;4.13;;;20.10;44.10;;;;;;5071004;28;20040;-58
2022/01/13 07:14:58;;;;;;;4.35;3.65;;;20.10;44.10;;;;;;5064716;28;20138;-58
2022/01/13 07:17:24;;;;;;;5.05;3.85;;;20.10;44.20;;;;;;5064687;28;20124;-59
2022/01/13 07:19:51;;;;;;;4.20;3.80;;;20.10;44.30;;;;;;5059379;28;40451;-59
2022/01/13 07:22:18;;;;;;;5.93;3.88;;;20.10;44.40;;;;;;5064802;28;20387;-59
2022/01/13 07:24:43;;;;;;;4.47;3.78;;;20.10;44.50;;;;;;5065535;28;20079;-59
2022/01/13 07:27:09;;;;;;;4.60;4.13;;;20.10;44.50;;;;;;5066860;28;20078;-60
2022/01/13 07:29:35;;;;;;;4.93;4.18;;;20.20;44.60;;;;;;5062942;28;20138;-59
2022/01/13 07:32:01;;;;;;;4.97;4.15;;;20.20;44.90;;;;;;5063812;28;20741;-59
2022/01/13 07:34:26;;;;;;;7.82;4.03;;;20.20;45.00;;;;;;5065220;28;46011;-59
2022/01/13 07:36:52;;;;;;;4.32;3.92;;;20.20;45.10;;;;;;5064504;28;20021;-59
2022/01/13 07:39:17;;;;;;;8.02;4.55;;;20.20;45.10;;;;;;5053516;28;20036;-60
2022/01/13 07:41:43;;;;;;;6.28;4.60;;;20.20;45.20;;;;;;5064788;28;20032;-59
2022/01/13 07:44:10;;;;;;;8.02;4.38;;;20.20;45.20;;;;;;5067263;28;20041;-59
2022/01/13 07:46:35;;;;;;;6.18;4.80;;;20.20;45.40;;;;;;5066053;28;40818;-58
2022/01/13 07:49:01;;;;;;;5.63;4.40;;;20.20;45.40;;;;;;5067514;28;20696;-58
2022/01/13 07:51:28;;;;;;;5.28;4.47;;;20.20;45.50;;;;;;5064787;28;20040;-58
2022/01/13 07:53:55;;;;;;;7.40;4.55;;;20.30;45.50;;;;;;5065300;28;20058;-59
2022/01/13 07:56:21;;;;;;;12.07;4.60;;;20.30;45.60;;;;;;5066063;28;20111;-58
2022/01/13 07:58:46;;;;;;;5.47;4.18;;;20.30;45.60;;;;;;5060579;28;20033;-59
2022/01/13 08:01:12;;;;;;;5.18;4.55;;;20.30;45.50;;;;;;5063268;28;40326;-59
2022/01/13 08:03:38;;;;;;;6.65;4.53;;;20.30;45.50;;;;;;5066769;28;20056;-59
2022/01/13 08:06:04;;;;;;;7.22;4.53;;;20.30;45.40;;;;;;5068678;28;20478;-58
2022/01/13 08:08:35;;;;;;;5.95;4.53;;;20.30;45.40;;;;;;5065804;28;20088;-59
2022/01/13 08:11:05;;;;;;;6.97;4.43;;;20.30;45.50;;;;;;5066428;28;20052;-59
2022/01/13 08:13:31;;;;;;;5.43;4.05;;;20.40;45.50;;;;;;5066173;28;20044;-59
2022/01/13 08:15:59;;;;;;;6.22;4.30;;;20.40;45.50;;;;;;5066547;28;36183;-58
2022/01/13 08:21:08;;;;;;;5.47;4.43;;;20.40;45.40;;;;;;5066993;28;20055;-59
2022/01/13 08:23:34;;;;;;;6.57;5.05;;;20.40;45.40;;;;;;5068474;28;20044;-58
2022/01/13 08:26:00;;;;;;;7.30;4.57;;;20.40;45.40;;;;;;5067929;28;20044;-59
2022/01/13 08:28:28;;;;;;;8.40;4.68;;;20.40;45.40;;;;;;5066666;28;38188;-59
2022/01/13 08:30:55;;;;;;;7.15;4.40;;;20.40;45.30;;;;;;5068987;28;20056;-58
2022/01/13 08:33:22;;;;;;;5.85;4.47;;;20.40;46.00;;;;;;5069565;28;20395;-58
2022/01/13 08:35:52;;;;;;;7.22;4.95;;;20.40;45.10;;;;;;5067797;28;20067;-58
2022/01/13 08:38:19;;;;;;;6.38;4.88;;;20.40;45.10;;;;;;5068610;28;20032;-59
2022/01/13 08:40:50;;;;;;;6.55;4.65;;;20.40;45.00;;;;;;5061852;28;20205;-59
2022/01/13 08:43:16;;;;;;;5.72;4.70;;;20.40;44.90;;;;;;5068126;28;37957;-59
2022/01/13 08:45:43;;;;;;;5.35;4.32;;;20.40;44.90;;;;;;5068171;28;20105;-59
2022/01/13 08:48:09;;;;;;;5.55;4.43;;;20.40;44.90;;;;;;5068323;28;20103;-59
2022/01/13 08:50:35;;;;;;;5.75;4.20;;;20.50;44.80;;;;;;5069480;28;20064;-60
2022/01/13 08:53:01;;;;;;;5.28;4.50;;;20.50;44.80;;;;;;5067932;28;20078;-60
2022/01/13 08:55:26;;;;;;;6.10;4.43;;;20.50;44.80;;;;;;5067544;28;20069;-59
2022/01/13 08:57:53;;;;;;;4.25;3.85;;;20.50;44.70;;;;;;5065715;28;43035;-59
2022/01/13 09:00:19;;;;;;;7.72;4.68;;;20.50;44.70;;;;;;5067290;28;20048;-58
2022/01/13 09:02:45;;;;;;;6.18;4.80;;;20.50;44.60;;;;;;5069546;28;20049;-59
2022/01/13 09:05:13;;;;;;;6.28;4.85;;;20.50;44.60;;;;;;5070425;28;20044;-59
2022/01/13 09:07:39;;;;;;;6.82;5.20;;;20.50;44.50;;;;;;5068260;28;20102;-60
2022/01/13 09:10:06;;;;;;;5.13;4.20;;;20.50;44.50;;;;;;5069226;28;20066;-59
2022/01/13 09:12:32;;;;;;;4.53;4.05;;;20.50;44.50;;;;;;5065106;28;36036;-58
2022/01/13 09:15:03;;;;;;;5.05;4.15;;;20.50;44.40;;;;;;5072646;28;20086;-59
2022/01/13 09:17:29;;;;;;;4.95;4.22;;;20.60;44.50;;;;;;5066796;28;20051;-59
2022/01/13 09:19:55;;;;;;;5.18;4.55;;;20.60;44.40;;;;;;5069386;28;20055;-59
2022/01/13 09:22:21;;;;;;;4.45;4.03;;;20.50;44.30;;;;;;5068757;28;20040;-60
2022/01/13 09:24:47;;;;;;;5.22;4.10;;;20.60;44.40;;;;;;5065008;28;40479;-59
2022/01/13 09:27:13;;;;;;;5.00;4.07;;;20.60;44.30;;;;;;5066766;28;20090;-60
2022/01/13 09:29:38;;;;;;;5.38;4.38;;;20.50;44.30;;;;;;5069757;28;20044;-60
2022/01/13 09:32:05;;;;;;;4.80;4.28;;;20.60;44.30;;;;;;5069774;28;20074;-59
2022/01/13 09:34:31;;;;;;;4.90;3.67;;;20.60;44.30;;;;;;5065835;28;20047;-59
2022/01/13 09:36:59;;;;;;;5.40;3.85;;;20.60;44.30;;;;;;5065547;28;20039;-59
2022/01/13 09:39:25;;;;;;;5.28;4.47;;;20.60;44.20;;;;;;5061896;28;35655;-58
2022/01/13 09:41:52;;;;;;;5.10;4.22;;;20.60;44.20;;;;;;5068418;28;20598;-60
2022/01/13 09:44:17;;;;;;;4.38;3.97;;;20.60;44.20;;;;;;5069465;28;20337;-59
2022/01/13 09:46:44;;;;;;;5.00;3.95;;;20.60;44.10;;;;;;5068021;28;20049;-60
2022/01/13 09:49:11;;;;;;;5.18;4.47;;;20.60;44.10;;;;;;5070852;28;20139;-59
2022/01/13 09:51:37;;;;;;;6.75;4.88;;;20.60;44.00;;;;;;5070052;28;20882;-60
2022/01/13 09:54:04;;;;;;;5.05;4.18;;;20.70;44.80;;;;;;5067254;28;40877;-59
2022/01/13 09:56:32;;;;;;;6.10;4.25;;;20.70;44.00;;;;;;5063930;28;20044;-59
2022/01/13 09:58:58;;;;;;;5.00;4.40;;;20.70;44.00;;;;;;5070650;28;20454;-59
2022/01/13 10:01:24;;;;;;;5.60;4.38;;;20.70;44.10;;;;;;5069262;28;20040;-59
2022/01/13 10:03:49;;;;;;;4.85;4.00;;;20.70;44.10;;;;;;5067638;28;20056;-60
2022/01/13 10:06:17;;;;;;;5.93;4.45;;;20.70;44.10;;;;;;5069226;28;20088;-61
2022/01/13 10:08:47;;;;;;;5.30;4.45;;;20.70;44.10;;;;;;5063040;28;37695;-59
2022/01/13 10:11:38;;;;;;;5.07;4.18;;;20.70;44.20;;;;;;5067829;28;20705;-60
2022/01/13 10:17:05;;;;;;;5.90;4.80;;;20.70;44.20;;;;;;5068112;28;20086;-59
2022/01/13 10:19:42;;;;;;;5.97;4.50;;;20.70;44.20;;;;;;5071976;28;20051;-58
2022/01/13 10:22:19;;;;;;;4.68;4.15;;;20.70;44.20;;;;;;5065710;28;20126;-60
2022/01/13 10:24:47;;;;;;;4.95;4.10;;;20.70;44.20;;;;;;5062341;28;20109;-58
2022/01/13 10:27:15;;;;;;;5.07;4.53;;;20.70;44.20;;;;;;5059204;28;20119;-59
2022/01/13 10:29:47;;;;;;;5.70;4.57;;;20.70;44.20;;;;;;5062364;28;20064;-59
2022/01/13 10:32:16;;;;;;;5.07;4.57;;;20.80;44.20;;;;;;5065004;28;20476;-58
2022/01/13 10:34:44;;;;;;;5.00;4.43;;;20.80;44.10;;;;;;5066091;28;20040;-60
2022/01/13 10:37:20;;;;;;;5.78;4.85;;;20.80;44.20;;;;;;5070298;28;20466;-59
2022/01/13 10:39:57;;;;;;;5.03;4.30;;;20.80;44.10;;;;;;5062804;28;33478;-59
2022/01/13 10:45:17;;;;;;;5.43;4.43;;;20.80;44.00;;;;;;5066778;28;20056;-60
2022/01/13 10:48:15;;;;;;;5.53;4.78;;;20.80;44.10;;;;;;5067333;28;20032;-59
2022/01/13 10:50:43;;;;;;;6.00;5.13;;;20.80;44.00;;;;;;5068172;28;20349;-59
2022/01/13 10:53:12;;;;;;;5.53;4.72;;;20.80;44.00;;;;;;5066399;28;20036;-60
2022/01/13 10:55:51;;;;;;;5.80;4.65;;;20.80;44.00;;;;;;5066290;28;38657;-58
2022/01/13 10:58:22;;;;;;;5.28;4.60;;;20.80;43.90;;;;;;5066342;28;20430;-59
2022/01/13 11:00:50;;;;;;;6.10;4.80;;;20.80;43.80;;;;;;5068083;28;20120;-60
2022/01/13 11:03:19;;;;;;;5.10;4.60;;;20.80;43.80;;;;;;5066877;28;20656;-59
2022/01/13 11:05:53;;;;;;;5.68;4.68;;;20.80;43.80;;;;;;5064865;28;20074;-59
2022/01/13 11:08:30;;;;;;;5.32;4.82;;;20.80;43.80;;;;;;5066084;28;42785;-59
2022/01/13 11:10:57;;;;;;;5.40;4.53;;;20.80;44.60;;;;;;5065254;28;20109;-59
2022/01/13 11:13:27;;;;;;;6.13;4.65;;;20.80;43.80;;;;;;5066967;28;20032;-60
2022/01/13 11:15:55;;;;;;;6.10;4.70;;;20.80;43.80;;;;;;5069827;28;20400;-60
2022/01/13 11:18:23;;;;;;;5.60;4.35;;;20.90;43.80;;;;;;5066245;28;20051;-60
2022/01/13 11:20:49;;;;;;;5.75;4.70;;;20.90;43.80;;;;;;5067001;28;20094;-58
2022/01/13 11:23:17;;;;;;;5.47;4.82;;;20.80;43.80;;;;;;5063211;28;43610;-59
2022/01/13 11:25:44;;;;;;;4.82;4.35;;;20.80;43.70;;;;;;5067241;28;20035;-59
2022/01/13 11:28:10;;;;;;;6.05;4.88;;;20.90;43.80;;;;;;5064580;28;20550;-59
2022/01/13 11:30:37;;;;;;;6.43;5.35;;;20.80;43.60;;;;;;5069374;28;20120;-59
2022/01/13 11:33:02;;;;;;;7.80;5.45;;;20.90;43.80;;;;;;5067601;28;20040;-59
2022/01/13 11:35:35;;;;;;;6.80;5.07;;;20.90;43.80;;;;;;5065295;28;20467;-59
2022/01/13 11:38:03;;;;;;;9.10;5.40;;;20.90;43.80;;;;;;5068169;28;20036;-59
2022/01/13 11:40:29;;;;;;;7.10;5.50;;;20.90;43.90;;;;;;5061066;28;20032;-59
2022/01/13 11:42:55;;;;;;;7.40;5.78;;;20.90;43.90;;;;;;5065651;28;20102;-59
2022/01/13 11:45:22;;;;;;;9.52;6.65;;;20.90;44.10;;;;;;5062657;28;20068;-59
2022/01/13 11:47:48;;;;;;;8.90;5.80;;;20.90;44.50;;;;;;5067552;28;20082;-59
2022/01/13 11:50:30;;;;;;;9.80;6.13;;;20.90;44.70;;;;;;5063860;28;40391;-59
2022/01/13 11:52:57;;;;;;;8.52;6.28;;;20.90;45.00;;;;;;5069021;28;20040;-59
2022/01/13 11:55:25;;;;;;;10.82;6.18;;;20.90;45.00;;;;;;5071596;28;20414;-58
2022/01/13 11:57:51;;;;;;;8.80;6.25;;;20.90;45.30;;;;;;5069663;28;20071;-62
2022/01/13 12:00:22;;;;;;;7.80;6.00;;;20.90;45.40;;;;;;5070128;28;20050;-59
2022/01/13 12:02:48;;;;;;;7.32;5.65;;;20.90;45.50;;;;;;5069156;28;20040;-59
2022/01/13 12:05:17;;;;;;;6.88;5.88;;;21.00;45.70;;;;;;5071462;28;43408;-58
2022/01/13 12:07:54;;;;;;;7.00;5.45;;;21.00;45.70;;;;;;5068031;28;20132;-60
2022/01/13 12:10:20;;;;;;;6.90;5.30;;;21.00;45.80;;;;;;5067874;28;20096;-59
2022/01/13 12:12:46;;;;;;;6.70;5.47;;;21.00;45.70;;;;;;5070686;28;20036;-59
2022/01/13 12:15:21;;;;;;;7.68;5.30;;;21.00;45.70;;;;;;5058553;28;20044;-58
2022/01/13 12:17:59;;;;;;;6.75;5.68;;;21.00;45.80;;;;;;5063002;28;38468;-58
2022/01/13 12:20:50;;;;;;;8.73;5.80;;;21.00;45.80;;;;;;5066891;28;20045;-59
2022/01/13 12:23:38;;;;;;;8.95;6.18;;;21.00;45.80;;;;;;5069867;28;20387;-58
2022/01/13 12:26:32;;;;;;;6.68;5.40;;;21.00;45.70;;;;;;5065861;28;20679;-59
2022/01/13 12:29:20;;;;;;;6.32;5.07;;;21.00;45.70;;;;;;5064552;28;20408;-59
2022/01/13 12:31:58;;;;;;;6.68;5.38;;;21.00;45.70;;;;;;5060207;28;42984;-59
2022/01/13 12:34:33;;;;;;;6.43;5.43;;;21.00;45.60;;;;;;5067513;28;20098;-60
2022/01/13 12:37:19;;;;;;;6.95;5.28;;;21.00;45.60;;;;;;5064924;28;20435;-60
2022/01/13 12:39:48;;;;;;;7.45;5.47;;;21.00;45.50;;;;;;5067934;28;20044;-59
2022/01/13 12:42:21;;;;;;;7.22;6.15;;;21.00;45.50;;;;;;5065430;28;20037;-60
2022/01/13 12:47:31;;;;;;;7.68;5.78;;;21.00;45.30;;;;;;5065056;28;40842;-60
2022/01/13 12:49:57;;;;;;;8.60;5.30;;;21.00;45.30;;;;;;5068889;28;20036;-60
2022/01/13 12:52:25;;;;;;;5.53;4.75;;;21.00;45.30;;;;;;5065981;28;20139;-60
2022/01/13 12:54:53;;;;;;;7.68;5.40;;;21.00;45.20;;;;;;5066712;28;20111;-61
2022/01/13 12:57:22;;;;;;;7.22;5.65;;;21.00;45.10;;;;;;5066957;28;20033;-60
2022/01/13 12:59:53;;;;;;;8.25;5.57;;;21.00;45.10;;;;;;5068937;28;20037;-60
2022/01/13 13:02:19;;;;;;;7.32;5.55;;;21.00;45.10;;;;;;5069341;28;20056;-59
2022/01/13 13:04:46;;;;;;;9.32;5.53;;;21.00;45.00;;;;;;5066053;28;20048;-59
2022/01/13 13:07:12;;;;;;;6.30;5.38;;;21.10;45.00;;;;;;5068807;28;20046;-59
2022/01/13 13:09:38;;;;;;;7.47;5.75;;;21.00;44.90;;;;;;5068404;28;20041;-60
2022/01/13 13:12:08;;;;;;;6.78;5.72;;;21.00;44.90;;;;;;5069056;28;20127;-60